sensor_id;sensor_type;location;lat;lon;timestamp;P1;durP1;ratioP1;P2;durP2;ratioP2
32196;SDS011;18697;42.770;23.400;2022-11-21T00:02:42;3.70;;;3.35;;
32196;SDS011;18697;42.770;23.400;2022-11-21T00:05:07;10.35;;;6.20;;
32196;SDS011;18697;42.770;23.400;2022-11-21T00:09:58;6.97;;;4.10;;
32196;SDS011;18697;42.770;23.400;2022-11-21T00:12:24;6.25;;;3.78;;
32196;SDS011;18697;42.770;23.400;2022-11-21T00:17:14;17.55;;;8.80;;
32196;SDS011;18697;42.770;23.400;2022-11-21T00:19:40;15.85;;;8.80;;
32196;SDS011;18697;42.770;23.400;2022-11-21T00:24:30;10.60;;;4.85;;
32196;SDS011;18697;42.770;23.400;2022-11-21T00:29:21;5.93;;;3.13;;
32196;SDS011;18697;42.770;23.400;2022-11-21T00:31:46;8.52;;;2.38;;
32196;SDS011;18697;42.770;23.400;2022-11-21T00:36:37;5.85;;;1.77;;
32196;SDS011;18697;42.770;23.400;2022-11-21T00:41:28;5.03;;;2.13;;
32196;SDS011;18697;42.770;23.400;2022-11-21T00:46:18;8.70;;;3.28;;
32196;SDS011;18697;42.770;23.400;2022-11-21T00:48:44;5.88;;;2.53;;
32196;SDS011;18697;42.770;23.400;2022-11-21T00:53:34;9.82;;;5.40;;
32196;SDS011;18697;42.770;23.400;2022-11-21T00:58:25;6.85;;;5.18;;
32196;SDS011;18697;42.770;23.400;2022-11-21T01:00:51;10.27;;;5.18;;
32196;SDS011;18697;42.770;23.400;2022-11-21T01:03:17;9.10;;;5.20;;
32196;SDS011;18697;42.770;23.400;2022-11-21T01:05:42;9.02;;;4.85;;
32196;SDS011;18697;42.770;23.400;2022-11-21T01:08:09;8.52;;;5.32;;
32196;SDS011;18697;42.770;23.400;2022-11-21T01:10:34;7.20;;;5.15;;
32196;SDS011;18697;42.770;23.400;2022-11-21T01:15:25;6.37;;;4.77;;
32196;SDS011;18697;42.770;23.400;2022-11-21T01:20:16;7.65;;;4.72;;
32196;SDS011;18697;42.770;23.400;2022-11-21T01:25:07;6.63;;;4.80;;
32196;SDS011;18697;42.770;23.400;2022-11-21T01:27:32;5.68;;;4.63;;
32196;SDS011;18697;42.770;23.400;2022-11-21T01:32:23;4.22;;;2.88;;
32196;SDS011;18697;42.770;23.400;2022-11-21T01:34:48;5.70;;;2.85;;
32196;SDS011;18697;42.770;23.400;2022-11-21T01:39:39;2.33;;;1.42;;
32196;SDS011;18697;42.770;23.400;2022-11-21T01:44:46;2.55;;;1.65;;
32196;SDS011;18697;42.770;23.400;2022-11-21T01:47:16;3.37;;;1.70;;
32196;SDS011;18697;42.770;23.400;2022-11-21T01:57:36;7.05;;;2.55;;
32196;SDS011;18697;42.770;23.400;2022-11-21T02:03:17;1.92;;;1.23;;
32196;SDS011;18697;42.770;23.400;2022-11-21T02:05:48;5.30;;;1.33;;
32196;SDS011;18697;42.770;23.400;2022-11-21T02:08:17;2.03;;;1.02;;
32196;SDS011;18697;42.770;23.400;2022-11-21T02:10:46;1.35;;;0.88;;
32196;SDS011;18697;42.770;23.400;2022-11-21T02:13:20;2.42;;;0.60;;
32196;SDS011;18697;42.770;23.400;2022-11-21T02:15:46;4.68;;;1.70;;
32196;SDS011;18697;42.770;23.400;2022-11-21T02:18:12;5.07;;;0.90;;
32196;SDS011;18697;42.770;23.400;2022-11-21T02:20:37;5.45;;;2.50;;
32196;SDS011;18697;42.770;23.400;2022-11-21T02:25:54;2.47;;;1.77;;
32196;SDS011;18697;42.770;23.400;2022-11-21T02:28:20;4.22;;;1.40;;
32196;SDS011;18697;42.770;23.400;2022-11-21T02:30:48;4.63;;;1.50;;
32196;SDS011;18697;42.770;23.400;2022-11-21T02:33:14;3.58;;;1.27;;
32196;SDS011;18697;42.770;23.400;2022-11-21T02:38:21;5.47;;;2.20;;
32196;SDS011;18697;42.770;23.400;2022-11-21T02:40:57;3.83;;;2.30;;
32196;SDS011;18697;42.770;23.400;2022-11-21T02:43:27;0.70;;;0.70;;
32196;SDS011;18697;42.770;23.400;2022-11-21T02:45:56;2.72;;;1.73;;
32196;SDS011;18697;42.770;23.400;2022-11-21T02:48:23;1.83;;;1.48;;
32196;SDS011;18697;42.770;23.400;2022-11-21T02:50:48;2.65;;;2.45;;
32196;SDS011;18697;42.770;23.400;2022-11-21T02:53:14;0.75;;;0.50;;
32196;SDS011;18697;42.770;23.400;2022-11-21T02:55:42;2.72;;;1.70;;
32196;SDS011;18697;42.770;23.400;2022-11-21T02:58:07;1.20;;;0.93;;
32196;SDS011;18697;42.770;23.400;2022-11-21T03:00:34;3.72;;;0.68;;
32196;SDS011;18697;42.770;23.400;2022-11-21T03:03:01;2.25;;;0.98;;
32196;SDS011;18697;42.770;23.400;2022-11-21T03:05:26;2.15;;;1.40;;
32196;SDS011;18697;42.770;23.400;2022-11-21T03:10:17;5.85;;;3.10;;
32196;SDS011;18697;42.770;23.400;2022-11-21T03:15:09;3.15;;;2.10;;
32196;SDS011;18697;42.770;23.400;2022-11-21T03:17:37;2.78;;;1.85;;
32196;SDS011;18697;42.770;23.400;2022-11-21T03:20:02;2.58;;;1.73;;
32196;SDS011;18697;42.770;23.400;2022-11-21T03:22:29;4.80;;;2.95;;
32196;SDS011;18697;42.770;23.400;2022-11-21T03:24:54;2.15;;;1.10;;
32196;SDS011;18697;42.770;23.400;2022-11-21T03:29:45;1.98;;;0.90;;
32196;SDS011;18697;42.770;23.400;2022-11-21T03:34:35;7.28;;;4.05;;
32196;SDS011;18697;42.770;23.400;2022-11-21T03:39:26;2.75;;;1.75;;
32196;SDS011;18697;42.770;23.400;2022-11-21T03:41:53;3.03;;;1.90;;
32196;SDS011;18697;42.770;23.400;2022-11-21T03:44:19;4.35;;;2.78;;
32196;SDS011;18697;42.770;23.400;2022-11-21T03:49:10;4.50;;;3.13;;
32196;SDS011;18697;42.770;23.400;2022-11-21T03:51:36;3.88;;;3.05;;
32196;SDS011;18697;42.770;23.400;2022-11-21T03:54:03;3.15;;;2.72;;
32196;SDS011;18697;42.770;23.400;2022-11-21T03:56:29;4.45;;;2.65;;
32196;SDS011;18697;42.770;23.400;2022-11-21T03:58:55;3.60;;;3.17;;
32196;SDS011;18697;42.770;23.400;2022-11-21T04:01:21;4.65;;;2.53;;
32196;SDS011;18697;42.770;23.400;2022-11-21T04:03:47;2.70;;;1.70;;
32196;SDS011;18697;42.770;23.400;2022-11-21T04:06:14;3.72;;;3.10;;
32196;SDS011;18697;42.770;23.400;2022-11-21T04:08:40;3.20;;;1.60;;
32196;SDS011;18697;42.770;23.400;2022-11-21T04:11:06;2.92;;;1.48;;
32196;SDS011;18697;42.770;23.400;2022-11-21T04:13:32;1.95;;;1.30;;
32196;SDS011;18697;42.770;23.400;2022-11-21T04:18:22;9.50;;;4.90;;
32196;SDS011;18697;42.770;23.400;2022-11-21T04:20:48;4.85;;;2.78;;
32196;SDS011;18697;42.770;23.400;2022-11-21T04:25:39;6.50;;;2.75;;
32196;SDS011;18697;42.770;23.400;2022-11-21T04:28:05;3.00;;;2.13;;
32196;SDS011;18697;42.770;23.400;2022-11-21T04:30:31;4.10;;;2.50;;
32196;SDS011;18697;42.770;23.400;2022-11-21T04:32:57;6.90;;;2.88;;
32196;SDS011;18697;42.770;23.400;2022-11-21T04:35:23;6.78;;;3.20;;
32196;SDS011;18697;42.770;23.400;2022-11-21T04:40:15;5.82;;;2.80;;
32196;SDS011;18697;42.770;23.400;2022-11-21T04:42:44;6.63;;;2.60;;
32196;SDS011;18697;42.770;23.400;2022-11-21T04:45:11;3.58;;;2.20;;
32196;SDS011;18697;42.770;23.400;2022-11-21T04:47:41;3.13;;;1.92;;
32196;SDS011;18697;42.770;23.400;2022-11-21T04:50:09;2.42;;;1.80;;
32196;SDS011;18697;42.770;23.400;2022-11-21T04:52:37;3.65;;;1.67;;
32196;SDS011;18697;42.770;23.400;2022-11-21T04:55:03;3.65;;;1.50;;
32196;SDS011;18697;42.770;23.400;2022-11-21T04:57:29;2.08;;;1.65;;
32196;SDS011;18697;42.770;23.400;2022-11-21T04:59:55;4.38;;;2.35;;
32196;SDS011;18697;42.770;23.400;2022-11-21T05:02:21;2.65;;;2.05;;
32196;SDS011;18697;42.770;23.400;2022-11-21T05:07:12;4.63;;;3.80;;
32196;SDS011;18697;42.770;23.400;2022-11-21T05:12:03;13.45;;;9.80;;
32196;SDS011;18697;42.770;23.400;2022-11-21T05:14:47;3.50;;;2.50;;
32196;SDS011;18697;42.770;23.400;2022-11-21T05:17:12;3.72;;;2.88;;
32196;SDS011;18697;42.770;23.400;2022-11-21T05:22:03;2.40;;;2.05;;
32196;SDS011;18697;42.770;23.400;2022-11-21T05:26:53;2.05;;;0.60;;
32196;SDS011;18697;42.770;23.400;2022-11-21T05:29:19;0.70;;;0.70;;
32196;SDS011;18697;42.770;23.400;2022-11-21T05:31:45;3.33;;;2.63;;
32196;SDS011;18697;42.770;23.400;2022-11-21T05:34:10;1.70;;;0.70;;
32196;SDS011;18697;42.770;23.400;2022-11-21T05:36:36;0.65;;;0.60;;
32196;SDS011;18697;42.770;23.400;2022-11-21T05:41:26;2.10;;;1.02;;
32196;SDS011;18697;42.770;23.400;2022-11-21T05:43:52;0.50;;;0.50;;
32196;SDS011;18697;42.770;23.400;2022-11-21T05:48:45;0.73;;;0.50;;
32196;SDS011;18697;42.770;23.400;2022-11-21T05:51:11;2.55;;;0.60;;
32196;SDS011;18697;42.770;23.400;2022-11-21T05:53:37;2.70;;;0.88;;
32196;SDS011;18697;42.770;23.400;2022-11-21T05:56:06;0.80;;;0.77;;
32196;SDS011;18697;42.770;23.400;2022-11-21T05:58:33;1.00;;;0.80;;
32196;SDS011;18697;42.770;23.400;2022-11-21T06:00:59;8.00;;;6.95;;
32196;SDS011;18697;42.770;23.400;2022-11-21T06:03:26;0.73;;;0.73;;
32196;SDS011;18697;42.770;23.400;2022-11-21T06:06:00;1.35;;;1.25;;
32196;SDS011;18697;42.770;23.400;2022-11-21T06:08:29;0.85;;;0.85;;
32196;SDS011;18697;42.770;23.400;2022-11-21T06:10:56;1.88;;;1.70;;
32196;SDS011;18697;42.770;23.400;2022-11-21T06:13:21;1.98;;;1.70;;
32196;SDS011;18697;42.770;23.400;2022-11-21T06:18:17;5.20;;;3.70;;
32196;SDS011;18697;42.770;23.400;2022-11-21T06:20:42;2.30;;;1.88;;
32196;SDS011;18697;42.770;23.400;2022-11-21T06:25:33;2.50;;;0.60;;
32196;SDS011;18697;42.770;23.400;2022-11-21T06:27:58;0.80;;;0.80;;
32196;SDS011;18697;42.770;23.400;2022-11-21T06:30:24;2.25;;;1.88;;
32196;SDS011;18697;42.770;23.400;2022-11-21T06:32:50;0.60;;;0.60;;
32196;SDS011;18697;42.770;23.400;2022-11-21T06:35:15;2.15;;;0.90;;
32196;SDS011;18697;42.770;23.400;2022-11-21T06:40:06;1.05;;;0.50;;
32196;SDS011;18697;42.770;23.400;2022-11-21T06:44:57;0.80;;;0.80;;
32196;SDS011;18697;42.770;23.400;2022-11-21T06:47:23;1.45;;;0.98;;
32196;SDS011;18697;42.770;23.400;2022-11-21T06:52:13;0.90;;;0.50;;
32196;SDS011;18697;42.770;23.400;2022-11-21T06:57:04;0.47;;;0.40;;
32196;SDS011;18697;42.770;23.400;2022-11-21T06:59:29;0.43;;;0.43;;
32196;SDS011;18697;42.770;23.400;2022-11-21T07:01:55;0.60;;;0.60;;
32196;SDS011;18697;42.770;23.400;2022-11-21T07:06:45;0.50;;;0.50;;
32196;SDS011;18697;42.770;23.400;2022-11-21T07:09:11;0.60;;;0.60;;
32196;SDS011;18697;42.770;23.400;2022-11-21T07:11:36;2.35;;;1.30;;
32196;SDS011;18697;42.770;23.400;2022-11-21T07:16:26;1.30;;;0.82;;
32196;SDS011;18697;42.770;23.400;2022-11-21T07:18:55;1.33;;;0.90;;
32196;SDS011;18697;42.770;23.400;2022-11-21T07:21:21;0.82;;;0.82;;
32196;SDS011;18697;42.770;23.400;2022-11-21T07:23:46;1.92;;;0.90;;
32196;SDS011;18697;42.770;23.400;2022-11-21T07:28:37;1.47;;;1.13;;
32196;SDS011;18697;42.770;23.400;2022-11-21T07:31:03;4.05;;;1.75;;
32196;SDS011;18697;42.770;23.400;2022-11-21T07:33:28;10.43;;;4.18;;
32196;SDS011;18697;42.770;23.400;2022-11-21T07:38:21;5.05;;;0.70;;
32196;SDS011;18697;42.770;23.400;2022-11-21T07:40:46;2.00;;;0.80;;
32196;SDS011;18697;42.770;23.400;2022-11-21T07:45:37;1.17;;;1.08;;
32196;SDS011;18697;42.770;23.400;2022-11-21T07:50:32;1.65;;;1.10;;
32196;SDS011;18697;42.770;23.400;2022-11-21T07:53:02;0.60;;;0.60;;
32196;SDS011;18697;42.770;23.400;2022-11-21T07:55:31;1.48;;;1.23;;
32196;SDS011;18697;42.770;23.400;2022-11-21T07:58:01;1.42;;;0.80;;
32196;SDS011;18697;42.770;23.400;2022-11-21T08:00:29;2.35;;;1.80;;
32196;SDS011;18697;42.770;23.400;2022-11-21T08:02:55;0.98;;;0.93;;
32196;SDS011;18697;42.770;23.400;2022-11-21T08:05:21;0.60;;;0.60;;
32196;SDS011;18697;42.770;23.400;2022-11-21T08:10:12;0.73;;;0.60;;
32196;SDS011;18697;42.770;23.400;2022-11-21T08:15:03;2.25;;;0.82;;
32196;SDS011;18697;42.770;23.400;2022-11-21T08:17:30;2.15;;;1.60;;
32196;SDS011;18697;42.770;23.400;2022-11-21T08:19:56;17.27;;;10.18;;
32196;SDS011;18697;42.770;23.400;2022-11-21T08:22:24;14.23;;;12.77;;
32196;SDS011;18697;42.770;23.400;2022-11-21T08:24:49;3.70;;;3.00;;
32196;SDS011;18697;42.770;23.400;2022-11-21T14:08:24;2.22;;;2.03;;
32196;SDS011;18697;42.770;23.400;2022-11-21T14:10:52;2.47;;;2.28;;
32196;SDS011;18697;42.770;23.400;2022-11-21T14:13:20;5.00;;;3.00;;
32196;SDS011;18697;42.770;23.400;2022-11-21T14:18:40;5.82;;;5.22;;
32196;SDS011;18697;42.770;23.400;2022-11-21T14:21:16;5.90;;;5.30;;
32196;SDS011;18697;42.770;23.400;2022-11-21T14:23:45;5.90;;;5.30;;
32196;SDS011;18697;42.770;23.400;2022-11-21T14:26:12;6.57;;;5.68;;
32196;SDS011;18697;42.770;23.400;2022-11-21T14:28:41;10.63;;;9.55;;
32196;SDS011;18697;42.770;23.400;2022-11-21T14:31:08;7.57;;;6.75;;
32196;SDS011;18697;42.770;23.400;2022-11-21T14:33:42;7.10;;;5.80;;
32196;SDS011;18697;42.770;23.400;2022-11-21T14:36:22;10.80;;;8.48;;
32196;SDS011;18697;42.770;23.400;2022-11-21T14:39:00;14.38;;;10.75;;
32196;SDS011;18697;42.770;23.400;2022-11-21T14:41:31;10.38;;;7.85;;
32196;SDS011;18697;42.770;23.400;2022-11-21T14:46:31;34.10;;;23.90;;
32196;SDS011;18697;42.770;23.400;2022-11-21T14:52:02;13.23;;;10.10;;
32196;SDS011;18697;42.770;23.400;2022-11-21T14:54:31;8.95;;;5.82;;
32196;SDS011;18697;42.770;23.400;2022-11-21T14:57:03;7.85;;;5.75;;
32196;SDS011;18697;42.770;23.400;2022-11-21T14:59:32;6.68;;;5.13;;
32196;SDS011;18697;42.770;23.400;2022-11-21T15:02:08;4.70;;;4.20;;
32196;SDS011;18697;42.770;23.400;2022-11-21T15:04:36;4.88;;;3.50;;
32196;SDS011;18697;42.770;23.400;2022-11-21T15:07:02;7.32;;;5.10;;
32196;SDS011;18697;42.770;23.400;2022-11-21T15:09:28;4.25;;;3.83;;
32196;SDS011;18697;42.770;23.400;2022-11-21T15:12:02;6.43;;;5.07;;
32196;SDS011;18697;42.770;23.400;2022-11-21T15:14:35;5.28;;;3.75;;
32196;SDS011;18697;42.770;23.400;2022-11-21T15:17:07;8.52;;;5.50;;
32196;SDS011;18697;42.770;23.400;2022-11-21T15:19:37;6.18;;;4.88;;
32196;SDS011;18697;42.770;23.400;2022-11-21T15:22:05;7.78;;;6.07;;
32196;SDS011;18697;42.770;23.400;2022-11-21T15:27:21;16.77;;;9.23;;
32196;SDS011;18697;42.770;23.400;2022-11-21T15:32:29;10.00;;;7.03;;
32196;SDS011;18697;42.770;23.400;2022-11-21T15:34:55;15.88;;;8.70;;
32196;SDS011;18697;42.770;23.400;2022-11-21T15:37:20;15.93;;;10.60;;
32196;SDS011;18697;42.770;23.400;2022-11-21T15:39:48;19.95;;;13.73;;
32196;SDS011;18697;42.770;23.400;2022-11-21T15:44:56;21.02;;;15.05;;
32196;SDS011;18697;42.770;23.400;2022-11-21T15:47:41;26.33;;;17.45;;
32196;SDS011;18697;42.770;23.400;2022-11-21T15:50:07;27.00;;;13.98;;
32196;SDS011;18697;42.770;23.400;2022-11-21T15:55:21;68.03;;;30.85;;
32196;SDS011;18697;42.770;23.400;2022-11-21T15:57:49;90.88;;;41.30;;
32196;SDS011;18697;42.770;23.400;2022-11-21T16:02:41;58.65;;;30.95;;
32196;SDS011;18697;42.770;23.400;2022-11-21T16:05:09;29.92;;;15.25;;
32196;SDS011;18697;42.770;23.400;2022-11-21T16:07:36;76.50;;;34.55;;
32196;SDS011;18697;42.770;23.400;2022-11-21T16:10:02;27.05;;;14.80;;
32196;SDS011;18697;42.770;23.400;2022-11-21T16:12:27;28.13;;;15.00;;
32196;SDS011;18697;42.770;23.400;2022-11-21T16:14:52;30.63;;;16.65;;
32196;SDS011;18697;42.770;23.400;2022-11-21T16:17:18;33.38;;;17.63;;
32196;SDS011;18697;42.770;23.400;2022-11-21T16:19:44;29.33;;;19.00;;
32196;SDS011;18697;42.770;23.400;2022-11-21T16:22:09;31.27;;;16.77;;
32196;SDS011;18697;42.770;23.400;2022-11-21T16:24:35;19.02;;;14.55;;
32196;SDS011;18697;42.770;23.400;2022-11-21T16:27:00;29.90;;;19.90;;
32196;SDS011;18697;42.770;23.400;2022-11-21T16:31:51;41.60;;;21.63;;
32196;SDS011;18697;42.770;23.400;2022-11-21T16:34:19;16.02;;;9.23;;
32196;SDS011;18697;42.770;23.400;2022-11-21T16:36:46;31.35;;;19.48;;
32196;SDS011;18697;42.770;23.400;2022-11-21T16:41:37;13.57;;;10.43;;
32196;SDS011;18697;42.770;23.400;2022-11-21T16:44:05;19.42;;;13.93;;
32196;SDS011;18697;42.770;23.400;2022-11-21T16:46:36;28.45;;;19.77;;
32196;SDS011;18697;42.770;23.400;2022-11-21T16:49:06;18.80;;;13.00;;
32196;SDS011;18697;42.770;23.400;2022-11-21T16:53:57;12.00;;;9.32;;
32196;SDS011;18697;42.770;23.400;2022-11-21T16:56:22;17.30;;;12.88;;
32196;SDS011;18697;42.770;23.400;2022-11-21T16:58:48;13.30;;;9.13;;
32196;SDS011;18697;42.770;23.400;2022-11-21T17:01:17;12.07;;;9.00;;
32196;SDS011;18697;42.770;23.400;2022-11-21T17:03:45;8.15;;;6.75;;
32196;SDS011;18697;42.770;23.400;2022-11-21T17:06:13;19.95;;;13.57;;
32196;SDS011;18697;42.770;23.400;2022-11-21T17:08:40;21.40;;;14.10;;
32196;SDS011;18697;42.770;23.400;2022-11-21T17:13:41;12.13;;;9.50;;
32196;SDS011;18697;42.770;23.400;2022-11-21T17:16:09;23.92;;;16.08;;
32196;SDS011;18697;42.770;23.400;2022-11-21T17:18:35;13.82;;;10.63;;
32196;SDS011;18697;42.770;23.400;2022-11-21T17:21:05;19.13;;;12.55;;
32196;SDS011;18697;42.770;23.400;2022-11-21T17:23:33;24.73;;;14.65;;
32196;SDS011;18697;42.770;23.400;2022-11-21T17:25:59;10.02;;;8.73;;
32196;SDS011;18697;42.770;23.400;2022-11-21T17:28:26;7.38;;;5.75;;
32196;SDS011;18697;42.770;23.400;2022-11-21T17:30:52;10.43;;;7.90;;
32196;SDS011;18697;42.770;23.400;2022-11-21T17:33:17;7.50;;;6.43;;
32196;SDS011;18697;42.770;23.400;2022-11-21T17:38:08;7.47;;;5.60;;
32196;SDS011;18697;42.770;23.400;2022-11-21T17:40:33;12.18;;;6.57;;
32196;SDS011;18697;42.770;23.400;2022-11-21T17:42:59;10.40;;;7.47;;
32196;SDS011;18697;42.770;23.400;2022-11-21T17:45:24;23.83;;;11.30;;
32196;SDS011;18697;42.770;23.400;2022-11-21T17:47:49;22.45;;;13.23;;
32196;SDS011;18697;42.770;23.400;2022-11-21T17:50:15;25.35;;;14.80;;
32196;SDS011;18697;42.770;23.400;2022-11-21T17:55:05;24.60;;;12.10;;
32196;SDS011;18697;42.770;23.400;2022-11-21T17:59:56;16.13;;;10.15;;
32196;SDS011;18697;42.770;23.400;2022-11-21T18:04:47;33.53;;;15.68;;
32196;SDS011;18697;42.770;23.400;2022-11-21T18:07:12;18.85;;;10.75;;
32196;SDS011;18697;42.770;23.400;2022-11-21T18:12:03;12.25;;;7.68;;
32196;SDS011;18697;42.770;23.400;2022-11-21T18:14:29;10.50;;;6.22;;
32196;SDS011;18697;42.770;23.400;2022-11-21T18:19:20;34.28;;;13.05;;
32196;SDS011;18697;42.770;23.400;2022-11-21T18:24:11;32.20;;;11.57;;
32196;SDS011;18697;42.770;23.400;2022-11-21T18:29:03;33.63;;;14.43;;
32196;SDS011;18697;42.770;23.400;2022-11-21T18:31:31;48.60;;;15.52;;
32196;SDS011;18697;42.770;23.400;2022-11-21T18:33:57;49.63;;;17.20;;
32196;SDS011;18697;42.770;23.400;2022-11-21T18:36:25;11.02;;;6.97;;
32196;SDS011;18697;42.770;23.400;2022-11-21T18:38:52;28.50;;;13.00;;
32196;SDS011;18697;42.770;23.400;2022-11-21T18:43:52;25.83;;;9.50;;
32196;SDS011;18697;42.770;23.400;2022-11-21T18:46:19;27.25;;;11.93;;
32196;SDS011;18697;42.770;23.400;2022-11-21T18:48:45;47.65;;;14.52;;
32196;SDS011;18697;42.770;23.400;2022-11-21T18:51:11;26.85;;;11.45;;
32196;SDS011;18697;42.770;23.400;2022-11-21T18:53:39;41.92;;;15.35;;
32196;SDS011;18697;42.770;23.400;2022-11-21T18:56:06;35.60;;;13.60;;
32196;SDS011;18697;42.770;23.400;2022-11-21T18:58:37;36.70;;;14.77;;
32196;SDS011;18697;42.770;23.400;2022-11-21T19:01:05;21.75;;;12.38;;
32196;SDS011;18697;42.770;23.400;2022-11-21T19:03:32;28.27;;;12.27;;
32196;SDS011;18697;42.770;23.400;2022-11-21T19:05:58;23.92;;;9.80;;
32196;SDS011;18697;42.770;23.400;2022-11-21T19:08:24;26.23;;;11.35;;
32196;SDS011;18697;42.770;23.400;2022-11-21T19:13:15;32.03;;;14.52;;
32196;SDS011;18697;42.770;23.400;2022-11-21T19:18:09;22.67;;;12.02;;
32196;SDS011;18697;42.770;23.400;2022-11-21T19:20:36;22.13;;;13.18;;
32196;SDS011;18697;42.770;23.400;2022-11-21T19:23:02;25.48;;;13.98;;
32196;SDS011;18697;42.770;23.400;2022-11-21T19:25:28;27.83;;;12.50;;
32196;SDS011;18697;42.770;23.400;2022-11-21T19:27:55;30.13;;;13.63;;
32196;SDS011;18697;42.770;23.400;2022-11-21T19:30:21;24.80;;;14.73;;
32196;SDS011;18697;42.770;23.400;2022-11-21T19:32:46;18.58;;;11.70;;
32196;SDS011;18697;42.770;23.400;2022-11-21T19:35:14;23.05;;;12.85;;
32196;SDS011;18697;42.770;23.400;2022-11-21T19:37:41;21.10;;;13.55;;
32196;SDS011;18697;42.770;23.400;2022-11-21T19:40:07;21.55;;;12.82;;
32196;SDS011;18697;42.770;23.400;2022-11-21T19:42:33;19.65;;;12.77;;
32196;SDS011;18697;42.770;23.400;2022-11-21T19:44:58;21.20;;;12.88;;
32196;SDS011;18697;42.770;23.400;2022-11-21T19:49:49;19.40;;;11.88;;
32196;SDS011;18697;42.770;23.400;2022-11-21T19:52:17;19.50;;;12.10;;
32196;SDS011;18697;42.770;23.400;2022-11-21T19:54:43;18.20;;;12.20;;
32196;SDS011;18697;42.770;23.400;2022-11-21T19:57:10;22.15;;;13.05;;
32196;SDS011;18697;42.770;23.400;2022-11-21T19:59:35;24.35;;;12.82;;
32196;SDS011;18697;42.770;23.400;2022-11-21T20:04:26;17.83;;;11.48;;
32196;SDS011;18697;42.770;23.400;2022-11-21T20:06:51;21.33;;;11.90;;
32196;SDS011;18697;42.770;23.400;2022-11-21T20:11:46;13.45;;;9.45;;
32196;SDS011;18697;42.770;23.400;2022-11-21T20:14:15;16.77;;;11.00;;
32196;SDS011;18697;42.770;23.400;2022-11-21T20:16:42;12.70;;;8.68;;
32196;SDS011;18697;42.770;23.400;2022-11-21T20:19:10;12.75;;;7.32;;
32196;SDS011;18697;42.770;23.400;2022-11-21T20:21:40;7.68;;;5.40;;
32196;SDS011;18697;42.770;23.400;2022-11-21T20:24:06;13.80;;;9.57;;
32196;SDS011;18697;42.770;23.400;2022-11-21T20:26:33;8.73;;;6.80;;
32196;SDS011;18697;42.770;23.400;2022-11-21T20:28:59;10.63;;;7.10;;
32196;SDS011;18697;42.770;23.400;2022-11-21T20:31:26;12.65;;;7.93;;
32196;SDS011;18697;42.770;23.400;2022-11-21T20:33:57;17.60;;;9.02;;
32196;SDS011;18697;42.770;23.400;2022-11-21T20:36:25;11.73;;;7.38;;
32196;SDS011;18697;42.770;23.400;2022-11-21T20:41:20;11.95;;;8.73;;
32196;SDS011;18697;42.770;23.400;2022-11-21T20:43:46;9.00;;;6.55;;
32196;SDS011;18697;42.770;23.400;2022-11-21T20:46:16;9.05;;;7.28;;
32196;SDS011;18697;42.770;23.400;2022-11-21T20:48:42;6.55;;;5.28;;
32196;SDS011;18697;42.770;23.400;2022-11-21T20:53:32;12.73;;;7.55;;
32196;SDS011;18697;42.770;23.400;2022-11-21T20:58:26;10.93;;;7.45;;
32196;SDS011;18697;42.770;23.400;2022-11-21T21:00:55;13.15;;;8.57;;
32196;SDS011;18697;42.770;23.400;2022-11-21T21:03:21;8.20;;;6.32;;
32196;SDS011;18697;42.770;23.400;2022-11-21T21:05:46;7.43;;;5.32;;
32196;SDS011;18697;42.770;23.400;2022-11-21T21:10:37;9.60;;;6.38;;
32196;SDS011;18697;42.770;23.400;2022-11-21T21:15:28;16.73;;;6.57;;
32196;SDS011;18697;42.770;23.400;2022-11-21T21:20:18;11.20;;;6.15;;
32196;SDS011;18697;42.770;23.400;2022-11-21T21:25:09;6.63;;;4.97;;
32196;SDS011;18697;42.770;23.400;2022-11-21T21:30:00;8.77;;;6.32;;
32196;SDS011;18697;42.770;23.400;2022-11-21T21:32:26;7.93;;;5.93;;
32196;SDS011;18697;42.770;23.400;2022-11-21T21:34:51;9.40;;;6.78;;
32196;SDS011;18697;42.770;23.400;2022-11-21T21:39:43;7.90;;;6.15;;
32196;SDS011;18697;42.770;23.400;2022-11-21T21:42:08;10.38;;;6.35;;
32196;SDS011;18697;42.770;23.400;2022-11-21T21:46:59;6.88;;;5.60;;
32196;SDS011;18697;42.770;23.400;2022-11-21T21:49:24;6.68;;;5.68;;
32196;SDS011;18697;42.770;23.400;2022-11-21T21:54:16;11.07;;;5.93;;
32196;SDS011;18697;42.770;23.400;2022-11-21T21:56:42;8.70;;;5.60;;
32196;SDS011;18697;42.770;23.400;2022-11-21T21:59:10;7.35;;;5.50;;
32196;SDS011;18697;42.770;23.400;2022-11-21T22:01:36;8.50;;;6.03;;
32196;SDS011;18697;42.770;23.400;2022-11-21T22:06:27;8.95;;;6.28;;
32196;SDS011;18697;42.770;23.400;2022-11-21T22:08:54;7.80;;;5.32;;
32196;SDS011;18697;42.770;23.400;2022-11-21T22:11:23;7.45;;;5.25;;
32196;SDS011;18697;42.770;23.400;2022-11-21T22:13:51;6.07;;;5.13;;
32196;SDS011;18697;42.770;23.400;2022-11-21T22:16:21;6.22;;;5.05;;
32196;SDS011;18697;42.770;23.400;2022-11-21T22:18:47;5.22;;;4.65;;
32196;SDS011;18697;42.770;23.400;2022-11-21T22:23:38;9.68;;;5.30;;
32196;SDS011;18697;42.770;23.400;2022-11-21T22:28:29;5.78;;;3.97;;
32196;SDS011;18697;42.770;23.400;2022-11-21T22:30:56;6.13;;;5.30;;
32196;SDS011;18697;42.770;23.400;2022-11-21T22:33:22;5.22;;;4.50;;
32196;SDS011;18697;42.770;23.400;2022-11-21T22:35:49;5.80;;;4.97;;
32196;SDS011;18697;42.770;23.400;2022-11-21T22:38:15;6.18;;;5.30;;
32196;SDS011;18697;42.770;23.400;2022-11-21T22:40:40;6.25;;;5.45;;
32196;SDS011;18697;42.770;23.400;2022-11-21T22:45:31;7.80;;;5.25;;
32196;SDS011;18697;42.770;23.400;2022-11-21T22:48:03;8.45;;;5.30;;
32196;SDS011;18697;42.770;23.400;2022-11-21T22:50:29;9.98;;;7.22;;
32196;SDS011;18697;42.770;23.400;2022-11-21T22:52:55;16.27;;;9.32;;
32196;SDS011;18697;42.770;23.400;2022-11-21T22:57:45;7.30;;;5.85;;
32196;SDS011;18697;42.770;23.400;2022-11-21T23:00:12;7.10;;;5.68;;
32196;SDS011;18697;42.770;23.400;2022-11-21T23:02:38;7.90;;;5.85;;
32196;SDS011;18697;42.770;23.400;2022-11-21T23:05:03;6.38;;;5.38;;
32196;SDS011;18697;42.770;23.400;2022-11-21T23:09:55;6.88;;;5.63;;
32196;SDS011;18697;42.770;23.400;2022-11-21T23:12:21;7.47;;;5.80;;
32196;SDS011;18697;42.770;23.400;2022-11-21T23:14:46;9.98;;;6.03;;
32196;SDS011;18697;42.770;23.400;2022-11-21T23:17:12;7.97;;;5.13;;
32196;SDS011;18697;42.770;23.400;2022-11-21T23:19:37;8.23;;;6.20;;
32196;SDS011;18697;42.770;23.400;2022-11-21T23:24:28;6.93;;;5.07;;
32196;SDS011;18697;42.770;23.400;2022-11-21T23:29:19;4.88;;;4.13;;
32196;SDS011;18697;42.770;23.400;2022-11-21T23:34:09;5.10;;;3.90;;
32196;SDS011;18697;42.770;23.400;2022-11-21T23:36:35;5.07;;;3.92;;
32196;SDS011;18697;42.770;23.400;2022-11-21T23:41:27;5.07;;;4.07;;
32196;SDS011;18697;42.770;23.400;2022-11-21T23:46:17;4.85;;;3.60;;
32196;SDS011;18697;42.770;23.400;2022-11-21T23:51:08;3.47;;;3.17;;
32196;SDS011;18697;42.770;23.400;2022-11-21T23:53:33;3.72;;;3.38;;
32196;SDS011;18697;42.770;23.400;2022-11-21T23:58:24;4.88;;;3.60;;
